createdAt,value
2023-04-16T00:00:23.251Z,100513.44
2023-04-16T00:01:25.793Z,100512.31
2023-04-16T00:02:28.271Z,100517.69
2023-04-16T00:03:30.818Z,100515.00
2023-04-16T00:04:33.607Z,100509.53
2023-04-16T00:05:35.963Z,100515.75
2023-04-16T00:06:38.482Z,100512.06
2023-04-16T00:07:41.348Z,100517.97
2023-04-16T00:08:43.831Z,100517.25
2023-04-16T00:09:46.747Z,100517.25
2023-04-16T00:10:49.124Z,100521.72
2023-04-16T00:11:51.575Z,100523.63
2023-04-16T00:12:54.166Z,100517.69
2023-04-16T00:13:56.485Z,100519.72
2023-04-16T00:14:59.324Z,100518.22
2023-04-16T00:16:02.042Z,100521.78
2023-04-16T00:17:04.371Z,100526.94
2023-04-16T00:18:07.027Z,100521.78
2023-04-16T00:19:09.787Z,100517.25
2023-04-16T00:20:12.417Z,100532.44
2023-04-16T00:21:14.661Z,100526.75
2023-04-16T00:22:17.127Z,100526.91
2023-04-16T00:23:21.752Z,100526.81
2023-04-16T00:24:24.108Z,100527.75
2023-04-16T00:25:26.630Z,100522.66
2023-04-16T00:26:29.026Z,100527.38
2023-04-16T00:27:31.706Z,100521.16
2023-04-16T00:28:34.631Z,100527.22
2023-04-16T00:29:36.806Z,100536.22
2023-04-16T00:30:39.260Z,100536.47
2023-04-16T00:31:41.845Z,100537.38
2023-04-16T00:32:44.084Z,100539.72
2023-04-16T00:33:46.802Z,100531.00
2023-04-16T00:34:49.005Z,100539.31
2023-04-16T00:35:51.298Z,100534.25
2023-04-16T00:36:53.709Z,100528.53
2023-04-16T00:37:56.039Z,100534.94
2023-04-16T00:38:58.474Z,100541.03
2023-04-16T00:40:01.338Z,100539.56
2023-04-16T00:41:03.653Z,100532.69
2023-04-16T00:42:06.051Z,100531.22
2023-04-16T00:43:08.587Z,100534.56
2023-04-16T00:44:11.036Z,100534.81
2023-04-16T00:45:13.545Z,100535.31
2023-04-16T00:46:16.930Z,100538.66
2023-04-16T00:47:20.434Z,100534.81
2023-04-16T00:48:23.426Z,100541.78
2023-04-16T00:49:26.709Z,100535.63
2023-04-16T00:50:29.787Z,100541.97
2023-04-16T00:51:33.000Z,100544.34
2023-04-16T00:52:35.936Z,100540.88
2023-04-16T00:53:38.876Z,100541.84
2023-04-16T00:54:41.480Z,100545.47
2023-04-16T00:55:44.616Z,100546.28
2023-04-16T00:56:47.040Z,100537.28
2023-04-16T00:57:50.738Z,100541.94
2023-04-16T00:58:55.061Z,100540.41
2023-04-16T00:59:58.339Z,100545.72
2023-04-16T01:01:01.255Z,100545.72
2023-04-16T01:02:03.577Z,100543.00
2023-04-16T01:03:06.351Z,100546.53
2023-04-16T01:04:09.306Z,100540.16
2023-04-16T01:05:11.644Z,100534.69
2023-04-16T01:06:14.747Z,100540.97
2023-04-16T01:07:17.223Z,100548.94
2023-04-16T01:08:21.535Z,100536.81
2023-04-16T01:09:24.222Z,100547.69
2023-04-16T01:10:26.569Z,100537.84
2023-04-16T01:11:29.054Z,100542.50
2023-04-16T01:12:32.567Z,100550.44
2023-04-16T01:13:39.364Z,100543.84
2023-04-16T01:14:42.020Z,100545.56
2023-04-16T01:15:44.485Z,100548.41
2023-04-16T01:16:46.834Z,100538.50
2023-04-16T01:17:49.331Z,100545.66
2023-04-16T01:18:51.965Z,100547.19
2023-04-16T01:19:59.537Z,100547.44
2023-04-16T01:21:01.905Z,100545.53
2023-04-16T01:22:05.279Z,100551.19
2023-04-16T01:23:07.615Z,100553.88
2023-04-16T01:24:10.093Z,100549.38
2023-04-16T01:25:16.181Z,100553.19
2023-04-16T01:26:18.657Z,100554.16
2023-04-16T01:27:20.920Z,100551.63
2023-04-16T01:28:23.662Z,100551.63
2023-04-16T01:29:26.781Z,100550.88
2023-04-16T01:30:31.794Z,100544.41
2023-04-16T01:32:00.326Z,100548.09
2023-04-16T01:33:12.833Z,100554.06
2023-04-16T01:34:16.205Z,100551.38
2023-04-16T01:35:20.014Z,100556.75
2023-04-16T01:36:22.488Z,100544.97
2023-04-16T01:37:25.552Z,100550.63
2023-04-16T01:38:27.839Z,100547.94
2023-04-16T01:39:30.481Z,100552.31
2023-04-16T01:40:34.142Z,100550.53
2023-04-16T01:41:36.492Z,100556.75
2023-04-16T01:42:39.009Z,100551.31
2023-04-16T01:43:42.600Z,100555.97
2023-04-16T01:44:47.108Z,100552.38
2023-04-16T01:45:49.365Z,100558.84
2023-04-16T01:46:51.590Z,100560.59
2023-04-16T01:47:53.917Z,100561.53
2023-04-16T01:48:56.862Z,100555.97
2023-04-16T01:50:00.556Z,100558.47
2023-04-16T01:51:04.905Z,100554.00
2023-04-16T01:52:08.474Z,100554.94
2023-04-16T01:53:10.856Z,100560.22
2023-04-16T01:54:13.287Z,100561.09
2023-04-16T01:55:15.859Z,100557.28
2023-04-16T01:56:18.606Z,100554.63
2023-04-16T01:57:20.964Z,100563.34
2023-04-16T01:58:23.239Z,100554.69
2023-04-16T01:59:25.607Z,100547.34
2023-04-16T02:00:28.271Z,100553.69
2023-04-16T02:01:30.885Z,100552.81
2023-04-16T02:02:33.270Z,100547.53
2023-04-16T02:03:35.915Z,100547.59
2023-04-16T02:04:45.089Z,100552.19
2023-04-16T02:05:47.686Z,100548.75
2023-04-16T02:06:49.960Z,100549.63
2023-04-16T02:07:52.181Z,100547.91
2023-04-16T02:08:54.609Z,100547.16
2023-04-16T02:09:58.046Z,100548.00
2023-04-16T02:11:01.185Z,100555.19
2023-04-16T02:12:04.192Z,100549.97
2023-04-16T02:13:06.446Z,100547.38
2023-04-16T02:14:09.121Z,100548.44
2023-04-16T02:15:12.103Z,100551.22
2023-04-16T02:16:14.588Z,100557.03
2023-04-16T02:17:24.931Z,100556.41
2023-04-16T02:18:38.825Z,100558.84
2023-04-16T02:19:41.818Z,100557.88
2023-04-16T02:20:47.528Z,100562.28
2023-04-16T02:21:52.589Z,100556.44
2023-04-16T02:22:54.822Z,100551.88
2023-04-16T02:23:59.253Z,100555.47
2023-04-16T02:25:04.422Z,100563.34
2023-04-16T02:26:07.096Z,100557.09
2023-04-16T02:27:09.521Z,100556.28
2023-04-16T02:28:14.658Z,100560.97
2023-04-16T02:29:17.942Z,100557.41
2023-04-16T02:30:27.820Z,100560.97
2023-04-16T02:31:31.778Z,100561.78
2023-04-16T02:32:34.156Z,100563.66
2023-04-16T02:33:36.722Z,100555.84
2023-04-16T02:34:40.328Z,100569.16
2023-04-16T02:35:43.248Z,100560.97
2023-04-16T02:36:45.518Z,100568.28
2023-04-16T02:37:47.761Z,100567.44
2023-04-16T02:38:50.182Z,100568.25
2023-04-16T02:39:53.308Z,100568.91
2023-04-16T02:40:55.994Z,100565.38
2023-04-16T02:41:59.441Z,100567.47
2023-04-16T02:43:02.308Z,100568.59
2023-04-16T02:44:04.736Z,100573.13
2023-04-16T02:45:07.616Z,100570.59
2023-04-16T02:46:10.103Z,100571.50
2023-04-16T02:47:12.339Z,100578.03
2023-04-16T02:48:14.548Z,100579.19
2023-04-16T02:49:16.752Z,100574.03
2023-04-16T02:50:18.964Z,100583.19
2023-04-16T02:51:21.459Z,100576.00
2023-04-16T02:52:23.740Z,100575.22
2023-04-16T02:53:25.985Z,100579.84
2023-04-16T02:54:28.258Z,100574.59
2023-04-16T02:55:30.479Z,100571.81
2023-04-16T02:56:33.055Z,100578.19
2023-04-16T02:57:35.484Z,100580.84
2023-04-16T02:58:37.972Z,100580.00
2023-04-16T02:59:40.632Z,100578.50
2023-04-16T03:00:43.329Z,100584.94
2023-04-16T03:01:45.624Z,100580.50
2023-04-16T03:02:48.101Z,100577.72
2023-04-16T03:03:50.570Z,100576.56
2023-04-16T03:04:53.882Z,100576.72
2023-04-16T03:05:56.075Z,100583.72
2023-04-16T03:06:58.310Z,100584.56
2023-04-16T03:08:00.525Z,100584.47
2023-04-16T03:09:02.758Z,100583.47
2023-04-16T03:10:06.589Z,100586.81
2023-04-16T03:11:08.952Z,100591.72
2023-04-16T03:12:11.632Z,100585.38
2023-04-16T03:13:14.365Z,100585.38
2023-04-16T03:14:16.580Z,100587.00
2023-04-16T03:15:18.927Z,100588.84
2023-04-16T03:16:21.523Z,100586.19
2023-04-16T03:17:24.189Z,100588.13
2023-04-16T03:18:26.436Z,100586.66
2023-04-16T03:19:28.606Z,100589.38
2023-04-16T03:20:30.996Z,100582.53
2023-04-16T03:21:33.302Z,100583.53
2023-04-16T03:22:35.607Z,100595.22
2023-04-16T03:23:37.886Z,100591.91
2023-04-16T03:24:40.802Z,100593.72
2023-04-16T03:25:46.608Z,100588.47
2023-04-16T03:26:48.903Z,100594.59
2023-04-16T03:27:51.725Z,100594.69
2023-04-16T03:28:54.540Z,100603.69
2023-04-16T03:29:57.160Z,100595.69
2023-04-16T03:30:59.992Z,100592.13
2023-04-16T03:32:02.614Z,100605.56
2023-04-16T03:33:05.032Z,100605.38
2023-04-16T03:34:07.867Z,100604.50
2023-04-16T03:35:10.816Z,100592.13
2023-04-16T03:36:13.494Z,100598.44
2023-04-16T03:37:16.751Z,100600.97
2023-04-16T03:38:19.027Z,100607.38
2023-04-16T03:39:21.765Z,100596.63
2023-04-16T03:40:24.184Z,100589.56
2023-04-16T03:41:27.983Z,100602.13
2023-04-16T03:42:30.785Z,100602.88
2023-04-16T03:43:33.872Z,100608.28
2023-04-16T03:44:36.279Z,100595.13
2023-04-16T03:45:47.157Z,100602.78
2023-04-16T03:46:49.474Z,100605.03
2023-04-16T03:47:53.007Z,100601.31
2023-04-16T03:48:58.096Z,100607.63
2023-04-16T03:50:00.510Z,100602.50
2023-04-16T03:51:03.692Z,100601.16
2023-04-16T03:52:06.136Z,100611.13
2023-04-16T03:53:08.501Z,100605.88
2023-04-16T03:54:10.856Z,100611.28
2023-04-16T03:55:14.042Z,100605.94
2023-04-16T03:56:16.873Z,100606.91
2023-04-16T03:57:19.141Z,100613.59
2023-04-16T03:58:21.739Z,100614.50
2023-04-16T03:59:23.970Z,100615.38
2023-04-16T04:00:26.568Z,100621.56
2023-04-16T04:01:49.796Z,100618.06
2023-04-16T04:02:53.435Z,100622.88
2023-04-16T04:03:56.098Z,100625.53
2023-04-16T04:04:58.423Z,100622.88
2023-04-16T04:06:00.878Z,100632.56
2023-04-16T04:07:05.646Z,100633.22
2023-04-16T04:08:08.266Z,100640.38
2023-04-16T04:09:11.924Z,100634.16
2023-04-16T04:10:14.303Z,100634.22
2023-04-16T04:11:17.442Z,100637.69
2023-04-16T04:12:21.978Z,100643.81
2023-04-16T04:13:24.444Z,100641.22
2023-04-16T04:14:27.538Z,100643.13
2023-04-16T04:15:30.259Z,100651.97
2023-04-16T04:16:32.842Z,100644.31
2023-04-16T04:17:35.481Z,100642.44
2023-04-16T04:18:38.260Z,100648.06
2023-04-16T04:19:47.089Z,100645.34
2023-04-16T04:20:53.268Z,100645.47
2023-04-16T04:21:59.119Z,100651.88
2023-04-16T04:23:01.638Z,100655.59
2023-04-16T04:24:03.968Z,100651.75
2023-04-16T04:25:10.245Z,100647.19
2023-04-16T04:26:12.524Z,100652.41
2023-04-16T04:27:16.071Z,100654.13
2023-04-16T04:28:18.538Z,100652.44
2023-04-16T04:29:21.453Z,100648.78
2023-04-16T04:30:23.858Z,100652.00
2023-04-16T04:31:26.085Z,100656.38
2023-04-16T04:32:28.294Z,100651.84
2023-04-16T04:33:32.228Z,100651.88
2023-04-16T04:34:35.634Z,100653.88
2023-04-16T04:35:38.247Z,100648.56
2023-04-16T04:36:40.787Z,100653.69
2023-04-16T04:37:43.082Z,100659.09
2023-04-16T04:38:56.804Z,100654.66
2023-04-16T04:39:59.119Z,100648.34
2023-04-16T04:41:01.445Z,100655.28
2023-04-16T04:42:08.721Z,100655.31
2023-04-16T04:43:10.919Z,100656.31
2023-04-16T04:44:14.229Z,100652.59
2023-04-16T04:45:19.383Z,100656.09
2023-04-16T04:46:21.865Z,100658.66
2023-04-16T04:47:25.551Z,100654.50
2023-04-16T04:48:28.848Z,100659.63
2023-04-16T04:49:32.172Z,100658.81
2023-04-16T04:50:34.486Z,100657.09
2023-04-16T04:51:38.316Z,100659.63
2023-04-16T04:52:40.814Z,100657.59
2023-04-16T04:53:43.747Z,100661.22
2023-04-16T04:54:46.421Z,100658.56
2023-04-16T04:55:52.336Z,100662.22
2023-04-16T04:56:56.628Z,100670.78
2023-04-16T04:57:58.846Z,100665.31
2023-04-16T04:59:01.853Z,100665.31
2023-04-16T05:00:04.467Z,100663.69
2023-04-16T05:01:14.846Z,100673.28
2023-04-16T05:02:17.201Z,100669.91
2023-04-16T05:03:24.077Z,100675.03
2023-04-16T05:04:26.412Z,100679.41
2023-04-16T05:05:28.820Z,100678.59
2023-04-16T05:06:31.463Z,100677.59
2023-04-16T05:07:33.790Z,100674.06
2023-04-16T05:08:36.358Z,100682.19
2023-04-16T05:09:38.782Z,100683.03
2023-04-16T05:10:41.289Z,100685.72
2023-04-16T05:11:43.537Z,100688.63
2023-04-16T05:12:48.906Z,100686.44
2023-04-16T05:13:54.369Z,100686.44
2023-04-16T05:14:56.802Z,100690.16
2023-04-16T05:15:59.712Z,100688.47
2023-04-16T05:17:02.098Z,100691.66
2023-04-16T05:18:04.632Z,100689.75
2023-04-16T05:19:06.997Z,100692.66
2023-04-16T05:20:09.841Z,100693.44
2023-04-16T05:21:12.160Z,100688.91
2023-04-16T05:22:14.472Z,100699.88
2023-04-16T05:23:16.748Z,100693.66
2023-04-16T05:24:19.940Z,100696.50
2023-04-16T05:25:22.782Z,100690.03
2023-04-16T05:26:30.508Z,100696.56
2023-04-16T05:27:36.448Z,100695.72
2023-04-16T05:28:38.678Z,100693.06
2023-04-16T05:29:41.048Z,100690.38
2023-04-16T05:30:43.561Z,100700.34
2023-04-16T05:31:45.997Z,100699.19
2023-04-16T05:32:48.435Z,100697.00
2023-04-16T05:33:50.665Z,100692.63
2023-04-16T05:34:53.133Z,100694.56
2023-04-16T05:35:55.398Z,100694.28
2023-04-16T05:36:57.588Z,100699.66
2023-04-16T05:37:59.782Z,100697.97
2023-04-16T05:39:02.188Z,100698.19
2023-04-16T05:40:04.647Z,100698.19
2023-04-16T05:41:09.426Z,100698.13
2023-04-16T05:42:11.666Z,100699.78
2023-04-16T05:43:16.162Z,100696.41
2023-04-16T05:44:18.744Z,100698.28
2023-04-16T05:45:21.262Z,100703.50
2023-04-16T05:46:23.598Z,100697.84
2023-04-16T05:47:25.945Z,100709.31
2023-04-16T05:48:28.156Z,100699.28
2023-04-16T05:49:30.366Z,100702.81
2023-04-16T05:50:32.592Z,100702.88
2023-04-16T05:51:34.841Z,100706.63
2023-04-16T05:52:37.253Z,100704.31
2023-04-16T05:53:41.836Z,100702.66
2023-04-16T05:54:44.099Z,100704.44
2023-04-16T05:55:47.104Z,100701.09
2023-04-16T05:56:49.313Z,100706.38
2023-04-16T05:57:51.521Z,100713.47
2023-04-16T05:58:53.752Z,100705.50
2023-04-16T05:59:55.938Z,100714.50
2023-04-16T06:00:58.378Z,100715.28
2023-04-16T06:02:00.765Z,100710.84
2023-04-16T06:03:03.854Z,100715.16
2023-04-16T06:04:06.570Z,100714.06
2023-04-16T06:05:09.026Z,100712.25
2023-04-16T06:06:11.809Z,100713.84
2023-04-16T06:07:14.009Z,100713.69
2023-04-16T06:08:16.269Z,100720.97
2023-04-16T06:09:19.068Z,100718.38
2023-04-16T06:10:21.415Z,100721.91
2023-04-16T06:11:23.918Z,100721.09
2023-04-16T06:12:29.459Z,100725.50
2023-04-16T06:13:31.771Z,100726.19
2023-04-16T06:14:34.273Z,100731.53
2023-04-16T06:15:36.668Z,100722.84
2023-04-16T06:16:38.853Z,100726.34
2023-04-16T06:17:42.139Z,100728.03
2023-04-16T06:18:44.733Z,100728.75
2023-04-16T06:19:46.941Z,100726.84
2023-04-16T06:20:49.407Z,100731.53
2023-04-16T06:21:51.691Z,100733.34
2023-04-16T06:22:53.979Z,100742.19
2023-04-16T06:23:56.467Z,100737.66
2023-04-16T06:24:58.761Z,100733.63
2023-04-16T06:26:01.329Z,100739.66
2023-04-16T06:27:03.598Z,100733.66
2023-04-16T06:28:06.098Z,100743.16
2023-04-16T06:29:08.596Z,100746.72
2023-04-16T06:30:16.771Z,100738.63
2023-04-16T06:31:19.186Z,100742.47
2023-04-16T06:32:21.672Z,100744.09
2023-04-16T06:33:24.071Z,100739.22
2023-04-16T06:34:28.034Z,100747.97
2023-04-16T06:35:30.455Z,100744.63
2023-04-16T06:36:32.938Z,100747.03
2023-04-16T06:37:35.551Z,100751.16
2023-04-16T06:38:37.879Z,100744.41
2023-04-16T06:39:40.715Z,100749.50
2023-04-16T06:40:43.163Z,100746.03
2023-04-16T06:41:45.721Z,100749.03
2023-04-16T06:42:47.945Z,100745.56
2023-04-16T06:43:50.348Z,100754.03
2023-04-16T06:44:52.518Z,100749.53
2023-04-16T06:45:54.961Z,100746.69
2023-04-16T06:46:57.359Z,100747.38
2023-04-16T06:47:59.766Z,100752.50
2023-04-16T06:49:02.264Z,100751.31
2023-04-16T06:50:04.716Z,100746.72
2023-04-16T06:51:07.193Z,100750.31
2023-04-16T06:52:09.876Z,100762.50
2023-04-16T06:53:12.191Z,100752.56
2023-04-16T06:54:14.590Z,100753.38
2023-04-16T06:55:17.016Z,100751.69
2023-04-16T06:56:19.452Z,100754.44
2023-04-16T06:57:21.861Z,100753.63
2023-04-16T06:58:24.133Z,100756.41
2023-04-16T06:59:29.680Z,100752.09
2023-04-16T07:00:31.877Z,100761.94
2023-04-16T07:01:34.508Z,100755.78
2023-04-16T07:02:36.954Z,100756.59
2023-04-16T07:03:39.783Z,100761.28
2023-04-16T07:04:42.107Z,100761.34
2023-04-16T07:05:44.344Z,100761.41
2023-04-16T07:06:46.731Z,100759.72
2023-04-16T07:07:48.955Z,100761.47
2023-04-16T07:08:51.202Z,100759.78
2023-04-16T07:09:53.425Z,100767.53
2023-04-16T07:10:55.876Z,100763.38
2023-04-16T07:11:58.429Z,100772.75
2023-04-16T07:13:01.690Z,100774.38
2023-04-16T07:14:04.094Z,100767.81
2023-04-16T07:15:07.400Z,100766.50
2023-04-16T07:16:09.802Z,100774.03
2023-04-16T07:17:12.052Z,100776.97
2023-04-16T07:18:14.337Z,100772.78
2023-04-16T07:19:16.569Z,100774.19
2023-04-16T07:20:18.797Z,100769.41
2023-04-16T07:21:22.173Z,100767.84
2023-04-16T07:22:24.584Z,100779.00
2023-04-16T07:23:26.817Z,100772.97
2023-04-16T07:24:29.162Z,100773.88
2023-04-16T07:25:31.487Z,100778.00
2023-04-16T07:26:33.682Z,100772.91
2023-04-16T07:27:36.089Z,100772.09
2023-04-16T07:28:38.378Z,100777.38
2023-04-16T07:29:41.165Z,100776.13
2023-04-16T07:30:46.180Z,100783.22
2023-04-16T07:31:49.644Z,100780.50
2023-04-16T07:32:52.211Z,100782.72
2023-04-16T07:33:54.456Z,100782.59
2023-04-16T07:34:56.765Z,100776.75
2023-04-16T07:35:59.099Z,100789.25
2023-04-16T07:37:01.771Z,100785.00
2023-04-16T07:38:03.979Z,100784.25
2023-04-16T07:39:10.961Z,100784.19
2023-04-16T07:40:13.725Z,100789.81
2023-04-16T07:41:16.016Z,100790.38
2023-04-16T07:42:18.602Z,100785.94
2023-04-16T07:43:20.838Z,100791.19
2023-04-16T07:44:23.081Z,100782.19
2023-04-16T07:45:25.304Z,100787.25
2023-04-16T07:46:39.405Z,100791.59
2023-04-16T07:47:48.415Z,100794.22
2023-04-16T07:48:50.721Z,100795.19
2023-04-16T07:49:53.816Z,100795.44
2023-04-16T07:50:56.347Z,100789.16
2023-04-16T07:51:58.618Z,100793.34
2023-04-16T07:53:01.577Z,100796.84
2023-04-16T07:54:03.842Z,100799.53
2023-04-16T07:55:06.405Z,100799.41
2023-04-16T07:56:08.985Z,100799.91
2023-04-16T07:57:12.276Z,100795.69
2023-04-16T07:58:14.574Z,100797.91
2023-04-16T07:59:22.824Z,100797.72
2023-04-16T08:00:26.482Z,100798.53
2023-04-16T08:01:31.506Z,100797.59
2023-04-16T08:02:33.977Z,100795.78
2023-04-16T08:03:36.745Z,100803.56
2023-04-16T08:04:39.502Z,100801.75
2023-04-16T08:05:41.958Z,100802.78
2023-04-16T08:06:44.339Z,100804.53
2023-04-16T08:07:46.787Z,100807.28
2023-04-16T08:08:49.550Z,100805.13
2023-04-16T08:09:52.979Z,100804.88
2023-04-16T08:10:56.026Z,100807.31
2023-04-16T08:11:59.974Z,100809.59
2023-04-16T08:13:02.162Z,100811.16
2023-04-16T08:14:04.900Z,100811.00
2023-04-16T08:15:07.770Z,100812.13
2023-04-16T08:16:10.173Z,100811.16
2023-04-16T08:17:13.225Z,100815.72
2023-04-16T08:18:15.762Z,100806.88
2023-04-16T08:19:18.159Z,100813.56
2023-04-16T08:20:20.613Z,100815.25
2023-04-16T08:21:22.890Z,100817.03
2023-04-16T08:22:26.527Z,100814.50
2023-04-16T08:23:29.741Z,100819.69
2023-04-16T08:24:32.405Z,100815.25
2023-04-16T08:25:35.457Z,100818.88
2023-04-16T08:26:37.797Z,100813.25
2023-04-16T08:27:40.229Z,100823.91
2023-04-16T08:28:42.743Z,100823.97
2023-04-16T08:29:44.952Z,100820.97
2023-04-16T08:30:47.231Z,100831.50
2023-04-16T08:31:49.786Z,100821.72
2023-04-16T08:32:52.303Z,100825.16
2023-04-16T08:33:54.944Z,100831.56
2023-04-16T08:34:58.102Z,100831.56
2023-04-16T08:36:00.549Z,100835.38
2023-04-16T08:37:03.049Z,100836.56
2023-04-16T08:38:05.511Z,100831.59
2023-04-16T08:39:08.132Z,100837.50
2023-04-16T08:40:11.182Z,100833.63
2023-04-16T08:41:14.154Z,100841.41
2023-04-16T08:42:24.022Z,100844.09
2023-04-16T08:43:27.428Z,100841.09
2023-04-16T08:44:34.961Z,100850.25
2023-04-16T08:45:38.419Z,100842.31
2023-04-16T08:46:41.617Z,100846.28
2023-04-16T08:47:49.579Z,100843.44
2023-04-16T08:48:56.040Z,100847.69
2023-04-16T08:49:59.234Z,100851.22
2023-04-16T08:51:02.318Z,100847.41
2023-04-16T08:52:06.722Z,100852.84
2023-04-16T08:53:15.973Z,100849.81
2023-04-16T08:54:43.785Z,100849.94
2023-04-16T08:55:50.888Z,100855.69
2023-04-16T08:56:54.049Z,100857.88
2023-04-16T08:58:01.358Z,100864.00
2023-04-16T08:59:07.542Z,100857.94
2023-04-16T09:00:12.137Z,100857.88
2023-04-16T09:01:15.398Z,100856.28
2023-04-16T09:02:17.972Z,100856.41
2023-04-16T09:03:21.612Z,100858.22
2023-04-16T09:04:28.758Z,100856.34
2023-04-16T09:05:31.888Z,100861.44
2023-04-16T09:06:35.164Z,100861.00
2023-04-16T09:07:38.181Z,100858.19
2023-04-16T09:08:41.083Z,100861.78
2023-04-16T09:09:48.442Z,100864.00
2023-04-16T09:10:53.597Z,100859.56
2023-04-16T09:11:56.612Z,100865.19
2023-04-16T09:12:59.444Z,100868.94
2023-04-16T09:14:02.060Z,100864.97
2023-04-16T09:15:05.917Z,100858.72
2023-04-16T09:16:09.371Z,100861.91
2023-04-16T09:17:14.147Z,100862.63
2023-04-16T09:18:16.577Z,100860.25
2023-04-16T09:19:18.988Z,100867.34
2023-04-16T09:20:21.225Z,100870.72
2023-04-16T09:21:24.154Z,100867.72
2023-04-16T09:22:26.480Z,100863.16
2023-04-16T09:23:29.690Z,100872.16
2023-04-16T09:24:32.698Z,100867.50
2023-04-16T09:25:35.301Z,100874.84
2023-04-16T09:26:38.638Z,100872.16
2023-04-16T09:27:41.069Z,100879.22
2023-04-16T09:28:47.995Z,100874.28
2023-04-16T09:29:50.593Z,100876.09
2023-04-16T09:31:17.179Z,100873.81
2023-04-16T09:32:26.332Z,100872.22
2023-04-16T09:33:28.549Z,100873.94
2023-04-16T09:34:35.386Z,100877.75
2023-04-16T09:35:51.639Z,100875.00
2023-04-16T09:36:53.929Z,100874.41
2023-04-16T09:37:57.851Z,100868.91
2023-04-16T09:39:00.361Z,100875.53
2023-04-16T09:40:04.816Z,100870.16
2023-04-16T09:41:08.317Z,100879.59
2023-04-16T09:42:14.133Z,100872.69
2023-04-16T09:43:18.778Z,100874.88
2023-04-16T09:44:21.783Z,100871.69
2023-04-16T09:45:24.703Z,100873.69
2023-04-16T09:46:31.777Z,100872.84
2023-04-16T09:47:45.249Z,100875.75
2023-04-16T09:48:47.961Z,100875.19
2023-04-16T09:49:50.397Z,100880.03
2023-04-16T09:50:52.712Z,100873.28
2023-04-16T09:51:56.163Z,100876.97
2023-04-16T09:53:03.588Z,100878.00
2023-04-16T09:54:06.695Z,100880.69
2023-04-16T09:55:08.864Z,100880.41
2023-04-16T09:56:12.225Z,100881.63
2023-04-16T09:57:18.200Z,100871.03
2023-04-16T09:58:20.781Z,100877.06
2023-04-16T09:59:24.196Z,100880.03
2023-04-16T10:00:28.717Z,100883.34
2023-04-16T10:01:31.410Z,100883.28
2023-04-16T10:02:39.160Z,100881.50
2023-04-16T10:03:42.422Z,100888.19
2023-04-16T10:04:52.056Z,100888.38
2023-04-16T10:05:54.464Z,100892.38
2023-04-16T10:07:05.042Z,100895.69
2023-04-16T10:08:17.293Z,100894.69
2023-04-16T10:09:19.654Z,100892.53
2023-04-16T10:10:22.342Z,100892.06
2023-04-16T10:11:24.909Z,100890.66
2023-04-16T10:12:28.784Z,100888.88
2023-04-16T10:13:32.056Z,100899.03
2023-04-16T10:14:34.835Z,100898.03
2023-04-16T10:15:37.288Z,100895.53
2023-04-16T10:16:41.207Z,100893.88
2023-04-16T10:17:43.659Z,100900.91
2023-04-16T10:18:47.328Z,100896.38
2023-04-16T10:19:51.198Z,100904.47
2023-04-16T10:20:53.690Z,100900.34
2023-04-16T10:21:56.160Z,100902.09
2023-04-16T10:22:59.141Z,100903.66
2023-04-16T10:24:01.718Z,100904.19
2023-04-16T10:25:04.281Z,100904.94
2023-04-16T10:26:06.803Z,100896.94
2023-04-16T10:27:09.005Z,100900.06
2023-04-16T10:28:13.151Z,100900.66
2023-04-16T10:29:15.698Z,100903.28
2023-04-16T10:30:19.466Z,100904.09
2023-04-16T10:31:22.957Z,100904.03
2023-04-16T10:32:28.634Z,100900.81
2023-04-16T10:33:36.437Z,100901.88
2023-04-16T10:34:39.145Z,100911.00
2023-04-16T10:35:41.439Z,100901.81
2023-04-16T10:36:47.807Z,100908.25
2023-04-16T10:37:51.529Z,100908.84
2023-04-16T10:38:58.469Z,100904.13
2023-04-16T10:40:00.686Z,100909.59
2023-04-16T10:41:04.844Z,100909.72
2023-04-16T10:42:13.602Z,100904.97
2023-04-16T10:43:19.764Z,100909.03
2023-04-16T10:44:24.929Z,100908.53
2023-04-16T10:45:40.003Z,100915.34
2023-04-16T10:46:43.956Z,100905.06
2023-04-16T10:47:46.285Z,100908.53
2023-04-16T10:48:50.789Z,100906.13
2023-04-16T10:49:54.776Z,100906.19
2023-04-16T10:50:58.198Z,100911.03
2023-04-16T10:52:07.537Z,100909.41
2023-04-16T10:53:28.203Z,100909.13
2023-04-16T10:54:31.414Z,100907.78
2023-04-16T10:55:38.112Z,100908.00
2023-04-16T10:56:40.750Z,100914.34
2023-04-16T10:57:42.945Z,100909.69
2023-04-16T10:58:45.340Z,100915.84
2023-04-16T10:59:48.982Z,100915.00
2023-04-16T11:00:52.005Z,100912.84
2023-04-16T11:01:56.357Z,100911.81
2023-04-16T11:02:58.895Z,100915.41
2023-04-16T11:04:25.082Z,100910.66
2023-04-16T11:05:46.900Z,100910.78
2023-04-16T11:07:14.638Z,100906.78
2023-04-16T11:08:16.836Z,100911.91
2023-04-16T11:09:49.816Z,100911.56
2023-04-16T11:10:52.402Z,100919.25
2023-04-16T11:11:55.074Z,100913.16
2023-04-16T11:12:57.604Z,100910.53
2023-04-16T11:14:00.325Z,100922.81
2023-04-16T11:15:06.400Z,100909.50
2023-04-16T11:16:08.765Z,100917.63
2023-04-16T11:17:11.122Z,100915.03
2023-04-16T11:18:19.701Z,100915.03
2023-04-16T11:19:22.094Z,100914.94
2023-04-16T11:20:28.383Z,100919.13
2023-04-16T11:21:32.626Z,100923.06
2023-04-16T11:22:38.281Z,100920.38
2023-04-16T11:23:52.036Z,100920.59
2023-04-16T11:24:56.234Z,100918.56
2023-04-16T11:25:59.258Z,100922.59
2023-04-16T11:27:01.842Z,100925.63
2023-04-16T11:28:04.099Z,100922.34
2023-04-16T11:29:14.400Z,100923.59
2023-04-16T11:30:17.563Z,100922.13
2023-04-16T11:31:19.925Z,100926.81
2023-04-16T11:32:22.786Z,100921.59
2023-04-16T11:33:26.188Z,100921.88
2023-04-16T11:34:28.547Z,100924.47
2023-04-16T11:35:31.177Z,100929.09
2023-04-16T11:36:46.343Z,100921.78
2023-04-16T11:37:48.903Z,100935.44
2023-04-16T11:38:51.673Z,100927.47
2023-04-16T11:39:57.148Z,100930.06
2023-04-16T11:40:59.324Z,100935.44
2023-04-16T11:42:01.593Z,100932.41
2023-04-16T11:43:15.753Z,100930.56
2023-04-16T11:44:22.094Z,100929.44
2023-04-16T11:45:24.339Z,100922.66
2023-04-16T11:46:39.522Z,100934.97
2023-04-16T11:47:55.442Z,100937.47
2023-04-16T11:48:57.921Z,100930.22
2023-04-16T11:50:21.469Z,100931.88
2023-04-16T11:51:24.187Z,100934.44
2023-04-16T11:52:27.733Z,100937.06
2023-04-16T11:53:29.924Z,100931.75
2023-04-16T11:54:35.164Z,100942.75
2023-04-16T11:55:45.549Z,100935.69
2023-04-16T11:56:49.772Z,100940.59
2023-04-16T11:57:53.270Z,100939.88
2023-04-16T11:59:12.225Z,100941.00
2023-04-16T12:00:15.919Z,100936.63
2023-04-16T12:01:21.421Z,100945.94
2023-04-16T12:02:45.310Z,100940.06
2023-04-16T12:03:49.785Z,100942.16
2023-04-16T12:04:52.410Z,100937.00
2023-04-16T12:06:07.808Z,100944.09
2023-04-16T12:07:14.890Z,100933.44
2023-04-16T12:08:30.944Z,100939.47